Time;durP1;ratioP1;P1;durP2;ratioP2;P2;SDS_P1;SDS_P2;PMS_P1;PMS_P2;Temp;Humidity;BMP_temperature;BMP_pressure;BME280_temperature;BME280_humidity;BME280_pressure;Samples;Min_cycle;Max_cycle;Signal;HPM_P1;HPM_P2
2023/11/10 00:02:14;;;;;;;4.87;1.37;;;9.90;1.00;;;;;;5029010;28;20976;-73
2023/11/10 00:04:43;;;;;;;5.40;0.90;;;9.90;1.00;;;;;;5025452;28;20416;-72
2023/11/10 00:07:09;;;;;;;1.17;0.90;;;;;;;;;;5023122;28;20188;-72
2023/11/10 00:13:06;;;;;;;2.10;0.77;;;10.00;1.00;;;;;;5008884;28;20455;-81
2023/11/10 00:15:36;;;;;;;4.00;1.10;;;10.10;1.00;;;;;;5020371;28;20991;-81
2023/11/10 00:18:30;;;;;;;0.80;0.80;;;10.10;1.00;;;;;;5016412;28;20483;-81
2023/11/10 00:24:18;;;;;;;3.80;1.17;;;;;;;;;;5027562;28;20395;-81
2023/11/10 00:26:44;;;;;;;2.00;1.20;;;9.90;1.00;;;;;;5025006;28;20790;-81
2023/11/10 00:29:10;;;;;;;3.23;1.10;;;9.90;1.00;;;;;;5026615;28;20411;-81
2023/11/10 00:31:36;;;;;;;3.03;1.00;;;;;;;;;;5018840;28;20462;-81
2023/11/10 00:37:24;;;;;;;3.17;1.23;;;9.80;1.00;;;;;;5019761;28;20901;-81
2023/11/10 00:39:57;;;;;;;4.70;1.30;;;9.80;1.00;;;;;;5019727;28;20420;-73
2023/11/10 00:42:23;;;;;;;1.37;1.27;;;9.80;1.00;;;;;;5020355;28;20264;-73
2023/11/10 00:44:56;;;;;;;4.73;1.30;;;9.70;1.00;;;;;;5026903;28;20418;-73
2023/11/10 00:47:22;;;;;;;2.17;1.23;;;9.60;1.00;;;;;;5026596;28;20419;-72
2023/11/10 00:49:49;;;;;;;3.13;1.27;;;;;;;;;;5022435;28;20961;-73
2023/11/10 00:52:15;;;;;;;1.47;1.37;;;9.50;1.00;;;;;;5021023;28;20445;-73
2023/11/10 00:54:42;;;;;;;5.67;1.30;;;9.40;1.00;;;;;;5036744;28;20803;-73
2023/11/10 00:57:08;;;;;;;1.70;1.23;;;9.40;1.00;;;;;;5025301;28;20177;-73
2023/11/10 00:59:36;;;;;;;1.93;1.30;;;9.30;1.00;;;;;;5015825;28;20424;-73
2023/11/10 01:02:06;;;;;;;2.70;1.20;;;9.30;1.00;;;;;;5022645;28;20743;-73
2023/11/10 01:04:32;;;;;;;2.10;1.17;;;9.30;1.00;;;;;;5036499;28;20407;-73
2023/11/10 01:06:58;;;;;;;1.73;1.20;;;9.30;1.00;;;;;;5036132;28;20909;-73
2023/11/10 01:09:24;;;;;;;5.70;1.40;;;;;;;;;;5027962;28;20502;-73
2023/11/10 01:15:12;;;;;;;1.73;1.00;;;;;;;;;;5033354;28;20981;-81
2023/11/10 01:17:49;;;;;;;1.03;0.77;;;9.50;1.00;;;;;;5013952;28;20435;-81
2023/11/10 01:20:24;;;;;;;1.40;1.00;;;9.50;1.00;;;;;;5028872;28;20433;-81
2023/11/10 01:23:42;;;;;;;1.63;1.00;;;9.50;1.00;;;;;;5028440;28;20469;-81
2023/11/10 01:26:08;;;;;;;4.87;1.93;;;;;;;;;;5023001;28;20413;-72
2023/11/10 01:28:34;;;;;;;2.50;1.20;;;;;;;;;;5018516;28;20839;-72
2023/11/10 01:31:00;;;;;;;1.17;0.83;;;9.70;1.00;;;;;;5016019;28;20812;-73
2023/11/10 01:33:30;;;;;;;1.17;1.00;;;9.70;1.00;;;;;;5022769;28;20435;-72
2023/11/10 01:35:56;;;;;;;3.47;1.20;;;9.70;1.00;;;;;;5020653;28;20231;-73
2023/11/10 01:38:30;;;;;;;1.03;1.00;;;9.70;1.00;;;;;;5029571;28;20789;-73
2023/11/10 01:40:56;;;;;;;1.80;1.03;;;9.80;1.00;;;;;;5036171;28;20199;-81
2023/11/10 01:44:12;;;;;;;3.37;1.43;;;9.80;1.00;;;;;;5029093;28;20423;-82
2023/11/10 01:50:13;;;;;;;1.27;1.17;;;9.90;1.00;;;;;;5013529;28;20751;-82
2023/11/10 02:02:47;;;;;;;1.30;1.20;;;9.90;1.00;;;;;;5009654;28;20429;-82
2023/11/10 02:05:13;;;;;;;1.87;1.43;;;9.90;1.00;;;;;;5020728;28;20422;-82
2023/11/10 02:14:24;;;;;;;3.33;1.50;;;9.90;1.00;;;;;;5013509;28;20410;-82
2023/11/10 02:16:55;;;;;;;1.20;1.10;;;9.90;1.00;;;;;;5033010;28;20791;-82
2023/11/10 02:26:12;;;;;;;3.57;1.40;;;9.60;1.00;;;;;;5021651;28;20451;-73
2023/11/10 02:28:40;;;;;;;6.00;1.40;;;9.50;1.00;;;;;;5017275;28;20442;-73
2023/11/10 02:31:05;;;;;;;6.03;1.73;;;9.30;1.00;;;;;;5020171;28;20818;-73
2023/11/10 02:33:33;;;;;;;1.13;1.03;;;;;;;;;;5030932;28;20452;-72
2023/11/10 02:36:00;;;;;;;1.10;1.00;;;;;;;;;;5014992;28;20177;-73
2023/11/10 02:38:25;;;;;;;1.20;1.10;;;9.20;1.00;;;;;;5031644;28;20421;-73
2023/11/10 02:44:47;;;;;;;4.93;1.20;;;9.10;1.00;;;;;;5016339;28;20511;-81
2023/11/10 02:53:56;;;;;;;1.13;1.03;;;8.80;1.00;;;;;;5016959;28;20399;-82
2023/11/10 03:00:36;;;;;;;0.80;0.73;;;8.70;1.00;;;;;;5015995;28;20256;-81
2023/11/10 03:09:46;;;;;;;1.10;0.90;;;8.60;1.00;;;;;;5006579;28;20423;-82
2023/11/10 03:12:36;;;;;;;5.30;0.73;;;8.60;1.00;;;;;;5013710;28;20543;-81
2023/11/10 03:18:24;;;;;;;9.60;1.00;;;8.60;1.00;;;;;;5014329;28;20794;-81
2023/11/10 03:24:14;;;;;;;2.00;0.60;;;8.70;1.00;;;;;;5019101;28;20603;-82
2023/11/10 03:26:40;;;;;;;1.70;0.80;;;8.60;1.00;;;;;;5028544;28;20477;-73
2023/11/10 03:29:07;;;;;;;4.40;1.00;;;8.70;1.00;;;;;;5020433;28;20875;-73
2023/11/10 03:31:33;;;;;;;1.37;0.80;;;8.60;1.00;;;;;;5014342;28;20239;-72
2023/11/10 03:33:59;;;;;;;2.60;0.60;;;8.60;1.00;;;;;;5022146;28;20421;-72
2023/11/10 03:36:25;;;;;;;2.73;0.83;;;8.70;1.00;;;;;;5032322;28;20419;-73
2023/11/10 03:38:51;;;;;;;1.07;0.70;;;;;;;;;;5015345;28;20518;-73
2023/11/10 03:48:01;;;;;;;5.77;0.70;;;;;;;;;;5018136;28;20482;-82
2023/11/10 03:53:49;;;;;;;1.23;0.70;;;8.70;1.00;;;;;;5021821;28;20953;-81
2023/11/10 03:56:17;;;;;;;9.23;0.93;;;8.70;1.00;;;;;;5013800;28;20420;-72
2023/11/10 03:58:43;;;;;;;1.43;1.00;;;;;;;;;;5012489;28;20446;-73
2023/11/10 04:01:11;;;;;;;0.80;0.80;;;8.80;1.00;;;;;;5002143;28;20818;-73
2023/11/10 04:03:38;;;;;;;1.37;0.70;;;8.70;1.00;;;;;;5007587;28;20508;-73
2023/11/10 04:06:04;;;;;;;0.60;0.60;;;8.70;1.00;;;;;;4999432;28;20477;-73
2023/11/10 04:08:30;;;;;;;4.00;1.20;;;8.70;1.00;;;;;;5014239;28;20522;-72
2023/11/10 04:10:56;;;;;;;2.50;1.00;;;8.70;1.00;;;;;;5014687;28;21216;-72
2023/11/10 04:13:44;;;;;;;4.70;1.53;;;8.70;1.00;;;;;;5014756;28;20404;-83
2023/11/10 04:19:33;;;;;;;0.70;0.70;;;;;;;;;;5013651;28;20438;-81
2023/11/10 04:25:20;;;;;;;0.90;0.63;;;8.60;5.50;;;;;;5007454;28;20422;-82
2023/11/10 04:27:46;;;;;;;1.33;0.80;;;;;;;;;;5010946;28;20428;-73
2023/11/10 04:30:12;;;;;;;2.00;0.80;;;8.50;6.30;;;;;;5010962;28;20200;-72
2023/11/10 04:32:38;;;;;;;4.73;1.00;;;;;;;;;;5013424;28;20565;-73
2023/11/10 04:35:04;;;;;;;3.37;1.20;;;8.50;4.60;;;;;;5027200;28;20933;-73
2023/11/10 04:37:37;;;;;;;5.43;0.80;;;8.50;5.30;;;;;;5013552;28;20408;-73
2023/11/10 04:40:06;;;;;;;5.60;1.00;;;8.50;4.70;;;;;;5017637;28;20191;-73
2023/11/10 04:42:32;;;;;;;1.23;0.53;;;8.50;2.30;;;;;;5017353;28;20482;-72
2023/11/10 04:44:58;;;;;;;2.80;0.80;;;8.40;2.70;;;;;;5012972;28;20435;-73
2023/11/10 04:47:24;;;;;;;1.00;0.67;;;8.50;3.30;;;;;;5026197;28;20186;-72
2023/11/10 04:50:01;;;;;;;2.73;0.60;;;8.40;2.30;;;;;;5015618;28;20657;-72
2023/11/10 04:52:31;;;;;;;5.03;1.00;;;8.40;2.80;;;;;;5013926;28;21000;-73
2023/11/10 04:54:56;;;;;;;0.70;0.70;;;8.40;1.80;;;;;;5001660;28;20953;-73
2023/11/10 04:57:26;;;;;;;2.23;0.70;;;8.30;1.00;;;;;;5014991;28;20424;-82
2023/11/10 04:59:55;;;;;;;7.00;1.10;;;8.30;1.00;;;;;;5012039;28;20173;-82
2023/11/10 05:05:45;;;;;;;3.43;0.80;;;8.30;1.00;;;;;;5033143;28;20434;-82
2023/11/10 05:11:34;;;;;;;2.77;0.90;;;8.20;1.00;;;;;;5016309;28;20490;-82
2023/11/10 05:17:21;;;;;;;2.93;0.77;;;8.20;1.70;;;;;;5025724;28;20456;-81
2023/11/10 05:19:49;;;;;;;0.50;0.40;;;8.20;1.30;;;;;;5020650;28;20424;-81
2023/11/10 05:23:06;;;;;;;0.70;0.67;;;8.20;1.00;;;;;;5016123;28;20650;-81
2023/11/10 05:25:54;;;;;;;1.80;0.67;;;8.20;1.00;;;;;;5016372;28;20424;-80
2023/11/10 05:35:04;;;;;;;3.40;0.80;;;8.10;2.50;;;;;;5013620;28;20506;-80
2023/11/10 05:37:36;;;;;;;1.23;0.60;;;8.20;2.80;;;;;;5018752;28;20538;-80
2023/11/10 05:43:54;;;;;;;4.50;0.87;;;8.10;1.00;;;;;;5025646;28;20418;-81
2023/11/10 05:49:42;;;;;;;4.60;0.70;;;8.10;1.00;;;;;;5013148;28;20751;-80
2023/11/10 05:52:36;;;;;;;5.37;0.83;;;8.00;1.00;;;;;;5022483;28;20509;-81
2023/11/10 05:58:24;;;;;;;0.50;0.50;;;;;;;;;;5019281;28;20426;-69
2023/11/10 06:00:51;;;;;;;2.20;0.60;;;8.00;1.60;;;;;;5020398;28;20511;-73
2023/11/10 06:03:17;;;;;;;1.07;0.70;;;8.00;1.60;;;;;;5037534;28;20801;-72
2023/11/10 06:05:43;;;;;;;4.33;0.63;;;8.10;1.20;;;;;;5018861;28;20423;-73
2023/11/10 06:08:09;;;;;;;1.40;0.80;;;8.10;1.80;;;;;;5018978;28;20435;-72
2023/11/10 06:10:34;;;;;;;10.80;0.90;;;8.10;1.40;;;;;;5015541;28;20415;-72
2023/11/10 06:13:36;;;;;;;4.83;0.80;;;8.10;1.00;;;;;;5021903;28;20614;-80
2023/11/10 06:16:31;;;;;;;0.80;0.80;;;8.10;1.00;;;;;;5009954;28;20565;-80
2023/11/10 06:23:06;;;;;;;1.27;0.80;;;8.10;1.00;;;;;;4999034;28;20469;-79
2023/11/10 06:26:06;;;;;;;3.60;0.90;;;7.90;1.00;;;;;;5008077;28;20424;-81
2023/11/10 06:31:55;;;;;;;0.70;0.40;;;;;;;;;;5007339;28;20458;-81
2023/11/10 06:37:43;;;;;;;2.53;0.80;;;7.60;1.00;;;;;;5017905;28;20799;-81
2023/11/10 06:43:38;;;;;;;1.60;0.50;;;7.40;2.20;;;;;;5008899;28;20179;-81
2023/11/10 06:46:04;;;;;;;0.80;0.53;;;7.30;2.10;;;;;;5010018;28;20930;-80
2023/11/10 06:51:51;;;;;;;4.73;0.80;;;7.30;2.60;;;;;;5027739;28;20516;-82
2023/11/10 06:54:31;;;;;;;4.30;0.83;;;7.20;7.40;;;;;;5033245;28;20435;-82
2023/11/10 06:57:09;;;;;;;3.50;0.50;;;;;;;;;;5014516;28;20181;-84
2023/11/10 07:00:09;;;;;;;1.23;0.83;;;7.20;8.80;;;;;;5013803;28;20779;-87
2023/11/10 07:09:25;;;;;;;0.60;0.60;;;7.50;14.10;;;;;;5014709;28;20904;-75
2023/11/10 07:11:55;;;;;;;3.70;0.67;;;7.70;12.70;;;;;;5017994;28;20498;-74
2023/11/10 07:14:37;;;;;;;0.77;0.60;;;7.70;8.70;;;;;;5026084;28;20910;-79
2023/11/10 07:17:41;;;;;;;4.37;0.87;;;7.80;10.90;;;;;;5034098;28;20453;-78
2023/11/10 07:20:13;;;;;;;1.93;1.00;;;7.90;5.10;;;;;;5015353;28;20994;-78
2023/11/10 07:26:01;;;;;;;2.60;0.70;;;8.00;1.00;;;;;;5014068;28;20392;-81
2023/11/10 07:28:37;;;;;;;1.07;0.77;;;8.10;1.00;;;;;;5016435;28;20911;-78
2023/11/10 07:31:36;;;;;;;1.10;0.60;;;8.10;1.00;;;;;;5010748;28;20651;-75
2023/11/10 07:34:19;;;;;;;1.00;0.70;;;8.10;1.00;;;;;;5013851;28;20432;-81
2023/11/10 07:37:19;;;;;;;3.77;0.80;;;8.10;1.00;;;;;;5013834;28;20450;-78
2023/11/10 07:39:45;;;;;;;1.10;0.70;;;8.10;1.00;;;;;;5013096;28;20454;-80
2023/11/10 07:42:20;;;;;;;1.23;0.80;;;8.20;1.00;;;;;;5011474;28;20427;-80
2023/11/10 07:44:47;;;;;;;3.73;1.00;;;8.20;1.00;;;;;;5014466;28;20750;-75
2023/11/10 07:47:13;;;;;;;1.43;0.70;;;8.20;1.00;;;;;;5012942;28;20432;-74
2023/11/10 07:49:38;;;;;;;0.80;0.70;;;8.40;1.00;;;;;;5024290;28;20423;-73
2023/11/10 07:52:05;;;;;;;4.40;1.10;;;8.50;1.00;;;;;;5028705;28;20204;-74
2023/11/10 07:54:54;;;;;;;2.10;0.70;;;8.40;1.00;;;;;;5018997;28;20177;-74
2023/11/10 07:57:28;;;;;;;2.83;0.77;;;8.60;1.00;;;;;;5022165;28;20423;-74
2023/11/10 08:00:36;;;;;;;1.47;0.60;;;8.60;1.00;;;;;;5015369;28;21171;-79
2023/11/10 08:03:40;;;;;;;2.43;1.07;;;8.70;1.00;;;;;;5025614;28;20884;-79
2023/11/10 08:06:37;;;;;;;1.53;0.70;;;8.80;1.00;;;;;;5013756;28;20456;-79
2023/11/10 08:09:07;;;;;;;1.60;0.70;;;8.90;1.00;;;;;;5012433;28;20416;-76
2023/11/10 08:11:33;;;;;;;1.07;0.60;;;8.90;1.00;;;;;;5023703;28;20997;-73
2023/11/10 08:14:36;;;;;;;1.53;0.63;;;8.90;1.00;;;;;;5020947;28;20451;-82
2023/11/10 08:17:19;;;;;;;0.80;0.50;;;8.90;1.00;;;;;;4994104;28;20253;-82
2023/11/10 08:20:36;;;;;;;0.63;0.60;;;9.00;1.00;;;;;;5000139;28;20423;-81
2023/11/10 08:23:37;;;;;;;1.80;0.60;;;9.00;1.00;;;;;;5016079;28;20396;-81
2023/11/10 08:26:13;;;;;;;5.03;0.60;;;9.00;1.00;;;;;;5018779;28;20440;-82
2023/11/10 08:29:09;;;;;;;1.77;0.57;;;9.20;1.00;;;;;;5013746;28;20431;-82
2023/11/10 08:32:07;;;;;;;1.90;0.60;;;9.20;1.00;;;;;;5010839;28;20486;-82
2023/11/10 08:35:07;;;;;;;2.13;0.83;;;9.30;1.00;;;;;;5013745;28;20392;-81
2023/11/10 08:37:43;;;;;;;1.50;0.50;;;9.40;1.00;;;;;;5027228;28;20419;-82
2023/11/10 08:40:09;;;;;;;1.80;0.80;;;9.30;1.00;;;;;;5029485;28;20474;-81
2023/11/10 08:43:06;;;;;;;2.07;0.70;;;9.40;1.00;;;;;;5017300;28;20435;-81
2023/11/10 08:45:37;;;;;;;0.67;0.67;;;9.50;1.00;;;;;;5015857;28;20435;-81
2023/11/10 08:48:07;;;;;;;1.70;0.70;;;9.60;1.00;;;;;;5024752;28;20422;-81
2023/11/10 08:51:07;;;;;;;0.63;0.60;;;9.60;1.00;;;;;;5034096;28;20411;-81
2023/11/10 08:54:06;;;;;;;1.17;0.60;;;9.70;1.00;;;;;;5017393;28;20396;-82
2023/11/10 08:57:07;;;;;;;1.50;0.60;;;9.60;1.00;;;;;;5016787;28;20408;-81
2023/11/10 08:59:38;;;;;;;1.03;0.60;;;9.60;1.00;;;;;;5013404;28;20437;-80
2023/11/10 09:02:07;;;;;;;0.60;0.60;;;9.60;1.00;;;;;;5025953;28;20410;-81
2023/11/10 09:05:06;;;;;;;1.37;0.50;;;9.70;1.00;;;;;;5007951;28;20439;-81
2023/11/10 09:08:06;;;;;;;1.33;0.60;;;10.00;1.00;;;;;;5011625;28;21033;-81
2023/11/10 09:10:32;;;;;;;1.77;0.70;;;10.20;1.00;;;;;;5015049;28;20403;-81
2023/11/10 09:13:07;;;;;;;3.23;0.67;;;10.30;1.00;;;;;;5019386;28;20494;-81
2023/11/10 09:15:35;;;;;;;3.33;0.60;;;10.40;1.00;;;;;;5008279;28;20499;-82
2023/11/10 09:18:01;;;;;;;1.17;0.60;;;10.50;1.00;;;;;;5016174;28;20412;-81
2023/11/10 09:20:27;;;;;;;0.77;0.50;;;10.70;1.00;;;;;;5024363;28;20462;-82
2023/11/10 09:22:52;;;;;;;1.07;0.67;;;10.80;1.00;;;;;;5029201;28;20451;-82
2023/11/10 09:25:20;;;;;;;1.87;0.60;;;10.90;1.00;;;;;;5023501;28;20184;-82
2023/11/10 09:27:56;;;;;;;4.97;0.80;;;10.80;1.00;;;;;;5023154;28;20259;-82
2023/11/10 09:30:25;;;;;;;2.63;0.70;;;11.00;1.00;;;;;;5027576;28;20438;-73
2023/11/10 09:32:51;;;;;;;1.13;0.60;;;11.00;1.00;;;;;;5029143;28;20535;-73
2023/11/10 09:35:18;;;;;;;2.83;0.80;;;;;;;;;;5016420;28;20571;-73
2023/11/10 09:37:46;;;;;;;2.50;1.03;;;;;;;;;;5017316;28;20746;-73
2023/11/10 09:40:13;;;;;;;3.70;0.63;;;;;;;;;;5012160;28;20415;-72
2023/11/10 09:42:42;;;;;;;5.40;0.80;;;10.60;1.00;;;;;;5026038;28;20403;-73
2023/11/10 09:48:38;;;;;;;4.63;1.03;;;10.70;1.00;;;;;;5027197;28;20486;-81
2023/11/10 09:51:05;;;;;;;1.70;0.60;;;10.80;1.00;;;;;;5015418;28;20415;-81
2023/11/10 09:57:36;;;;;;;1.47;0.63;;;10.90;1.00;;;;;;5017962;28;20411;-81
2023/11/10 10:00:04;;;;;;;1.00;0.70;;;11.00;1.00;;;;;;5028584;28;20431;-72
2023/11/10 10:02:30;;;;;;;1.40;1.07;;;11.00;1.00;;;;;;5016928;28;20432;-71
2023/11/10 10:04:55;;;;;;;2.40;1.00;;;11.10;1.00;;;;;;5020509;28;20408;-72
2023/11/10 10:07:31;;;;;;;6.00;1.00;;;11.20;1.00;;;;;;5026998;28;20498;-72
2023/11/10 10:09:57;;;;;;;3.80;1.53;;;11.30;1.00;;;;;;5015940;28;20212;-71
2023/11/10 10:12:24;;;;;;;2.00;0.60;;;11.20;1.00;;;;;;5011517;28;20499;-71
2023/11/10 10:15:07;;;;;;;0.77;0.70;;;11.10;1.00;;;;;;5013973;28;20412;-71
2023/11/10 10:18:08;;;;;;;1.43;0.90;;;11.30;1.00;;;;;;5015290;28;20766;-81
2023/11/10 10:20:40;;;;;;;1.87;0.80;;;11.50;1.00;;;;;;5022105;28;20831;-80
2023/11/10 10:23:36;;;;;;;1.67;0.80;;;11.50;1.00;;;;;;5015788;28;20427;-80
2023/11/10 10:26:09;;;;;;;0.83;0.70;;;11.50;1.00;;;;;;5021911;28;20418;-80
2023/11/10 10:28:37;;;;;;;3.33;0.73;;;11.50;1.00;;;;;;5026487;28;20426;-81
2023/11/10 10:31:07;;;;;;;0.80;0.63;;;11.50;1.00;;;;;;5016176;28;20905;-80
2023/11/10 10:34:07;;;;;;;1.53;0.70;;;11.50;1.00;;;;;;5022296;28;20773;-80
2023/11/10 10:36:38;;;;;;;3.70;0.60;;;11.40;1.00;;;;;;5025877;28;20416;-80
2023/11/10 10:39:10;;;;;;;0.40;0.40;;;11.60;1.00;;;;;;5011024;28;20445;-81
2023/11/10 10:41:40;;;;;;;2.10;0.77;;;11.30;1.00;;;;;;5017599;28;20927;-80
2023/11/10 10:44:37;;;;;;;3.00;0.60;;;11.00;1.00;;;;;;5012858;28;20432;-81
2023/11/10 10:47:08;;;;;;;1.10;0.60;;;11.10;1.00;;;;;;4995483;28;20429;-81
2023/11/10 10:50:07;;;;;;;3.03;0.53;;;11.00;1.00;;;;;;5013655;28;20427;-81
2023/11/10 10:52:37;;;;;;;1.03;0.60;;;10.90;1.00;;;;;;5013731;28;20463;-81
2023/11/10 10:55:08;;;;;;;0.80;0.60;;;11.10;1.00;;;;;;5013505;28;20511;-81
2023/11/10 10:58:08;;;;;;;3.40;1.00;;;11.30;1.00;;;;;;5015162;28;20411;-81
2023/11/10 11:00:37;;;;;;;4.00;1.20;;;11.50;1.00;;;;;;5016294;28;20446;-74
2023/11/10 11:03:28;;;;;;;1.00;0.50;;;11.30;1.00;;;;;;5006104;28;20490;-73
2023/11/10 11:06:13;;;;;;;2.43;0.97;;;11.50;1.00;;;;;;5014735;28;20435;-72
2023/11/10 11:09:15;;;;;;;0.87;0.60;;;11.50;1.00;;;;;;5012235;28;20551;-73
2023/11/10 11:12:27;;;;;;;0.97;0.80;;;11.20;1.00;;;;;;4999691;28;20486;-73
2023/11/10 11:15:03;;;;;;;0.70;0.60;;;11.10;1.00;;;;;;5010466;28;20421;-73
2023/11/10 11:18:00;;;;;;;1.63;0.70;;;11.10;1.00;;;;;;5036185;28;20895;-73
2023/11/10 11:20:25;;;;;;;0.90;0.90;;;11.10;1.00;;;;;;5015599;28;20501;-73
2023/11/10 11:23:04;;;;;;;3.23;0.70;;;11.20;1.00;;;;;;5022386;28;20906;-73
2023/11/10 11:25:31;;;;;;;1.53;0.80;;;11.40;1.00;;;;;;5023558;28;20415;-72
2023/11/10 11:28:01;;;;;;;1.07;0.50;;;11.40;1.00;;;;;;5026380;28;20441;-72
2023/11/10 11:30:37;;;;;;;2.60;0.90;;;11.70;1.00;;;;;;5014378;28;20822;-79
2023/11/10 11:33:11;;;;;;;2.13;0.70;;;11.50;1.00;;;;;;5010234;28;20487;-80
2023/11/10 11:39:00;;;;;;;7.60;0.90;;;11.30;1.00;;;;;;5005623;28;20455;-80
2023/11/10 11:41:38;;;;;;;1.90;0.60;;;11.30;1.00;;;;;;5025757;28;20409;-80
2023/11/10 11:44:08;;;;;;;1.40;1.07;;;11.30;1.00;;;;;;5014037;28;20446;-80
2023/11/10 11:46:39;;;;;;;1.77;0.60;;;11.10;1.00;;;;;;5027269;28;20419;-80
2023/11/10 11:49:37;;;;;;;2.10;0.60;;;11.20;1.00;;;;;;5029351;28;20816;-80
2023/11/10 11:52:37;;;;;;;2.30;0.50;;;11.40;1.00;;;;;;5018462;28;20458;-80
2023/11/10 11:55:07;;;;;;;1.63;0.80;;;11.40;1.00;;;;;;4999153;28;20435;-80
2023/11/10 11:57:37;;;;;;;2.77;0.60;;;11.50;1.00;;;;;;5030229;28;20423;-80
2023/11/10 12:00:08;;;;;;;2.00;0.50;;;11.50;1.00;;;;;;5033618;28;20445;-80
2023/11/10 12:02:39;;;;;;;1.23;0.70;;;11.80;1.00;;;;;;5009697;28;20550;-73
2023/11/10 12:05:06;;;;;;;4.93;0.80;;;11.90;1.00;;;;;;5013782;28;20841;-73
2023/11/10 12:07:37;;;;;;;2.13;0.80;;;11.80;1.00;;;;;;5018257;28;20414;-74
2023/11/10 12:10:08;;;;;;;3.17;0.73;;;11.80;1.00;;;;;;5021259;28;20482;-74
2023/11/10 12:12:37;;;;;;;8.03;0.80;;;11.80;1.00;;;;;;5035141;28;21000;-74
2023/11/10 12:15:10;;;;;;;1.97;0.60;;;11.70;1.00;;;;;;5023161;28;20449;-74
2023/11/10 12:17:37;;;;;;;9.10;0.83;;;11.50;1.00;;;;;;5025688;28;20398;-73
2023/11/10 12:20:10;;;;;;;2.63;1.17;;;11.50;1.00;;;;;;5019851;28;20447;-73
2023/11/10 12:22:37;;;;;;;3.60;0.70;;;11.50;1.00;;;;;;5016390;28;20930;-73
2023/11/10 12:25:10;;;;;;;1.63;0.77;;;11.40;1.00;;;;;;5022702;28;20427;-74
2023/11/10 12:27:36;;;;;;;0.70;0.60;;;11.50;1.00;;;;;;5024418;28;20390;-74
2023/11/10 12:30:02;;;;;;;1.00;0.60;;;11.50;1.00;;;;;;5010295;28;20423;-74
2023/11/10 12:32:30;;;;;;;1.00;0.80;;;11.60;1.00;;;;;;5014077;28;20440;-74
2023/11/10 12:34:56;;;;;;;2.10;0.77;;;;;;;;;;5037102;28;20733;-74
2023/11/10 12:37:37;;;;;;;2.83;0.80;;;11.80;1.00;;;;;;5029183;28;20938;-74
2023/11/10 12:40:11;;;;;;;0.60;0.60;;;12.00;1.00;;;;;;5014647;28;20524;-74
2023/11/10 12:42:44;;;;;;;2.20;0.50;;;11.70;1.00;;;;;;5021830;28;20414;-73
2023/11/10 12:45:14;;;;;;;2.07;1.00;;;11.90;1.00;;;;;;5018742;28;20859;-74
2023/11/10 12:47:57;;;;;;;8.60;0.60;;;;;;;;;;5032410;28;20434;-73
2023/11/10 12:50:28;;;;;;;4.90;1.27;;;11.90;1.00;;;;;;5008493;28;20734;-73
2023/11/10 12:52:54;;;;;;;1.03;0.60;;;11.80;1.00;;;;;;5008732;28;20470;-73
2023/11/10 12:55:20;;;;;;;4.83;0.93;;;;;;;;;;5017067;28;20396;-73
2023/11/10 12:57:47;;;;;;;2.70;0.73;;;11.80;1.00;;;;;;5019555;28;20470;-72
2023/11/10 13:00:17;;;;;;;9.03;1.90;;;11.80;1.00;;;;;;5004345;28;20454;-73
2023/11/10 13:02:44;;;;;;;1.80;0.93;;;;;;;;;;5013342;28;20497;-74
2023/11/10 13:05:19;;;;;;;1.30;0.67;;;11.80;1.00;;;;;;5012691;28;20446;-74
2023/11/10 13:07:55;;;;;;;0.97;0.50;;;11.90;1.00;;;;;;5022854;28;20446;-73
2023/11/10 13:10:25;;;;;;;0.80;0.70;;;11.60;1.00;;;;;;5020036;28;21180;-74
2023/11/10 13:12:55;;;;;;;2.00;0.83;;;11.70;1.00;;;;;;5026825;28;20973;-73
2023/11/10 13:15:21;;;;;;;2.00;1.13;;;11.60;1.00;;;;;;5016548;28;20440;-73
2023/11/10 13:21:48;;;;;;;4.70;0.67;;;11.70;1.00;;;;;;5005843;28;20490;-79
2023/11/10 13:27:36;;;;;;;5.63;1.10;;;11.50;1.00;;;;;;5024098;28;20454;-79
2023/11/10 13:36:47;;;;;;;2.43;0.67;;;11.40;1.00;;;;;;5019829;28;20418;-79
2023/11/10 13:46:42;;;;;;;4.00;0.80;;;11.30;1.00;;;;;;5020012;28;20511;-79
2023/11/10 13:52:38;;;;;;;1.80;0.53;;;11.70;1.00;;;;;;5019658;28;20466;-79
2023/11/10 13:55:19;;;;;;;4.03;0.80;;;11.80;1.00;;;;;;5016258;28;20431;-80
2023/11/10 13:57:46;;;;;;;1.87;0.80;;;11.70;1.00;;;;;;5020535;28;20426;-79
2023/11/10 14:00:12;;;;;;;3.07;1.00;;;11.70;1.00;;;;;;5028089;28;20415;-79
2023/11/10 14:02:39;;;;;;;3.03;1.20;;;11.70;1.00;;;;;;5026861;28;20957;-79
2023/11/10 14:05:07;;;;;;;4.90;1.00;;;11.70;1.00;;;;;;5020870;28;20470;-79
2023/11/10 14:08:01;;;;;;;3.10;0.63;;;11.60;1.00;;;;;;5010354;28;20420;-80
2023/11/10 14:17:10;;;;;;;7.40;1.10;;;11.60;1.00;;;;;;5025063;28;20929;-79
2023/11/10 14:20:18;;;;;;;2.03;0.50;;;11.60;1.00;;;;;;5033936;28;20416;-79
2023/11/10 14:26:06;;;;;;;6.30;0.80;;;11.50;1.00;;;;;;5012757;28;20391;-79
2023/11/10 14:32:13;;;;;;;2.80;0.80;;;11.20;1.00;;;;;;5006033;28;20498;-79
2023/11/10 14:34:39;;;;;;;2.70;1.00;;;11.30;1.00;;;;;;5013584;28;20432;-73
2023/11/10 14:37:07;;;;;;;4.43;0.73;;;11.30;1.00;;;;;;5025371;28;20403;-73
2023/11/10 14:39:38;;;;;;;4.60;1.20;;;11.30;1.00;;;;;;5025340;28;20992;-74
2023/11/10 14:42:05;;;;;;;2.10;0.63;;;11.20;1.00;;;;;;5012670;28;20447;-74
2023/11/10 14:44:35;;;;;;;4.10;0.50;;;;;;;;;;5028373;28;20474;-74
2023/11/10 14:47:11;;;;;;;4.13;0.90;;;11.20;1.00;;;;;;5022054;28;20907;-73
2023/11/10 14:49:57;;;;;;;1.13;0.60;;;11.20;1.00;;;;;;5009917;28;20407;-79
2023/11/10 14:52:45;;;;;;;2.93;1.00;;;11.20;1.00;;;;;;5022149;28;20822;-79
2023/11/10 14:58:40;;;;;;;1.73;0.90;;;11.30;1.00;;;;;;5105618;27;20514;-78
2023/11/10 15:01:12;;;;;;;4.53;1.07;;;11.30;1.00;;;;;;5104187;28;20412;-78
2023/11/10 15:03:39;;;;;;;1.90;0.70;;;11.40;1.00;;;;;;5090454;28;20178;-72
2023/11/10 15:06:07;;;;;;;2.00;0.60;;;11.30;1.00;;;;;;5109846;28;20407;-72
2023/11/10 15:08:33;;;;;;;4.13;1.13;;;11.30;1.00;;;;;;5090790;28;20517;-72
2023/11/10 15:11:08;;;;;;;2.80;0.90;;;;;;;;;;5099558;28;20815;-72
2023/11/10 15:13:33;;;;;;;3.80;1.00;;;11.20;1.00;;;;;;5096716;28;20415;-71
2023/11/10 15:16:00;;;;;;;21.23;1.33;;;;;;;;;;5103111;28;20439;-75
2023/11/10 15:18:26;;;;;;;6.47;1.30;;;11.20;1.00;;;;;;5086182;28;20699;-73
2023/11/10 15:20:55;;;;;;;5.20;0.90;;;11.10;1.00;;;;;;5102567;28;20461;-75
2023/11/10 15:23:37;;;;;;;6.73;1.33;;;;;;;;;;5085820;28;20284;-77
2023/11/10 15:26:07;;;;;;;2.30;1.00;;;;;;;;;;5090009;28;20816;-72
2023/11/10 15:28:35;;;;;;;15.33;2.07;;;10.80;1.00;;;;;;5084354;28;20476;-72
2023/11/10 15:31:04;;;;;;;4.23;0.90;;;10.60;1.00;;;;;;5110828;28;20465;-72
2023/11/10 15:33:38;;;;;;;8.80;1.63;;;;;;;;;;5100168;28;20424;-72
2023/11/10 15:36:06;;;;;;;5.30;1.13;;;10.60;1.00;;;;;;5086974;28;21252;-72
2023/11/10 15:38:37;;;;;;;3.60;1.00;;;10.50;1.00;;;;;;5090299;28;20401;-72
2023/11/10 15:41:13;;;;;;;0.50;0.50;;;10.40;1.00;;;;;;5103173;28;20407;-72
2023/11/10 15:43:41;;;;;;;8.30;1.53;;;;;;;;;;5096523;28;20412;-72
2023/11/10 15:46:08;;;;;;;3.40;0.73;;;;;;;;;;5096160;28;20738;-72
2023/11/10 15:48:49;;;;;;;1.03;0.80;;;10.20;1.00;;;;;;5088253;28;20544;-80
2023/11/10 15:51:19;;;;;;;3.23;0.53;;;10.10;1.00;;;;;;5094133;28;20987;-80
2023/11/10 15:54:07;;;;;;;6.23;1.50;;;10.10;1.00;;;;;;5088200;28;20451;-79
2023/11/10 15:56:36;;;;;;;0.90;0.67;;;10.00;1.00;;;;;;5085598;28;20503;-79
2023/11/10 15:59:03;;;;;;;7.37;1.13;;;10.00;1.00;;;;;;5084193;28;20432;-81
2023/11/10 16:01:29;;;;;;;11.70;1.90;;;;;;;;;;5091413;28;20417;-74
2023/11/10 16:03:55;;;;;;;6.37;1.63;;;9.80;1.00;;;;;;5098117;28;20530;-72
2023/11/10 16:06:22;;;;;;;3.43;1.20;;;9.80;1.00;;;;;;5087014;28;20440;-70
2023/11/10 16:08:48;;;;;;;7.60;1.03;;;9.70;1.00;;;;;;5085543;28;20503;-72
2023/11/10 16:11:14;;;;;;;1.83;0.60;;;;;;;;;;5080296;28;20900;-71
2023/11/10 16:13:41;;;;;;;4.67;1.00;;;9.70;1.00;;;;;;5076598;28;20796;-71
2023/11/10 16:16:10;;;;;;;2.63;1.07;;;9.70;1.00;;;;;;5081334;28;22437;-71
2023/11/10 16:18:36;;;;;;;1.90;0.80;;;9.70;1.00;;;;;;5078013;28;20517;-71
2023/11/10 16:21:06;;;;;;;0.70;0.63;;;;;;;;;;5093708;28;20428;-72
2023/11/10 16:23:35;;;;;;;1.23;0.60;;;9.70;1.00;;;;;;5082425;28;20417;-71
2023/11/10 16:26:05;;;;;;;4.87;0.70;;;9.60;1.00;;;;;;5084010;28;20491;-71
2023/11/10 16:28:35;;;;;;;5.20;1.33;;;9.60;1.00;;;;;;5060581;27;20604;-71
2023/11/10 16:31:04;;;;;;;8.60;1.30;;;;;;;;;;5072995;28;22351;-70
2023/11/10 16:33:31;;;;;;;2.23;0.70;;;9.50;1.00;;;;;;5070296;28;20430;-74
2023/11/10 16:36:19;;;;;;;1.10;0.60;;;9.40;1.00;;;;;;5070616;28;20413;-79
2023/11/10 16:38:49;;;;;;;7.70;0.70;;;9.40;1.00;;;;;;5079536;28;20416;-79
2023/11/10 16:41:26;;;;;;;2.40;0.60;;;9.40;1.00;;;;;;5076860;28;20523;-79
2023/11/10 16:43:56;;;;;;;1.00;0.83;;;;;;;;;;5080451;28;20484;-78
2023/11/10 16:46:31;;;;;;;2.60;0.90;;;9.50;1.00;;;;;;5086849;28;20416;-80
2023/11/10 16:48:57;;;;;;;3.47;1.00;;;9.50;1.00;;;;;;5080106;28;20528;-71
2023/11/10 16:51:24;;;;;;;3.30;1.20;;;9.50;1.00;;;;;;5091449;28;20500;-72
2023/11/10 16:53:51;;;;;;;5.10;1.17;;;;;;;;;;5062020;28;20287;-71
2023/11/10 16:56:17;;;;;;;3.90;0.77;;;9.20;1.00;;;;;;5076627;28;20405;-70
2023/11/10 16:58:43;;;;;;;2.43;0.93;;;9.30;1.00;;;;;;5071403;28;20524;-71
2023/11/10 17:01:13;;;;;;;7.10;1.23;;;9.30;1.00;;;;;;5082488;28;20935;-76